createdAt,value
2018-12-23T03:20:18.155Z,57.03
2018-12-23T03:23:06.646Z,58.60
2018-12-23T03:25:54.391Z,56.57
2018-12-23T03:31:35.638Z,56.63
2018-12-23T03:34:24.410Z,57.97
2018-12-23T03:37:13.516Z,56.33
2018-12-23T03:40:02.296Z,56.03
2018-12-23T03:42:50.194Z,60.40
2018-12-23T03:45:39.784Z,56.10
2018-12-23T03:48:28.066Z,55.93
2018-12-23T03:51:17.723Z,54.63
2018-12-23T03:54:06.371Z,55.40
2018-12-23T03:56:54.100Z,55.23
2018-12-23T03:59:46.759Z,53.23
2018-12-23T04:02:38.855Z,56.37
2018-12-23T04:05:29.796Z,54.43
2018-12-23T04:08:21.847Z,56.13
2018-12-23T04:11:10.872Z,59.90
2018-12-23T04:13:59.218Z,60.80
2018-12-23T04:16:49.724Z,57.50
2018-12-23T04:19:53.026Z,52.07
2018-12-23T04:22:41.145Z,52.93
2018-12-23T04:28:48.336Z,53.57
2018-12-23T04:31:37.211Z,52.83
2018-12-23T04:34:25.302Z,53.07
2018-12-23T04:37:14.306Z,53.37
2018-12-23T04:40:01.999Z,52.57
2018-12-23T04:42:49.875Z,51.10
2018-12-23T04:45:38.781Z,50.67
2018-12-23T04:48:26.135Z,51.43
2018-12-23T04:51:15.346Z,52.73
2018-12-23T04:54:02.825Z,52.27
2018-12-23T04:56:51.088Z,52.50
2018-12-23T04:59:39.214Z,51.13
2018-12-23T05:02:29.023Z,51.23
2018-12-23T05:05:17.390Z,50.87
2018-12-23T05:08:08.502Z,50.20
2018-12-23T05:10:56.898Z,51.23
2018-12-23T05:13:44.609Z,51.03
2018-12-23T05:16:32.315Z,49.50
2018-12-23T05:19:20.598Z,50.97
2018-12-23T05:22:08.911Z,51.47
2018-12-23T05:24:57.354Z,48.87
2018-12-23T05:27:49.415Z,48.43
2018-12-23T05:30:40.141Z,49.87
2018-12-23T05:33:28.644Z,48.57
2018-12-23T05:36:17.956Z,49.17
2018-12-23T05:39:08.061Z,48.97
2018-12-23T05:41:56.858Z,47.67
2018-12-23T05:44:52.084Z,48.10
2018-12-23T05:47:41.328Z,47.40
2018-12-23T05:50:29.235Z,45.57
2018-12-23T05:53:24.457Z,46.33
2018-12-23T05:56:17.207Z,44.20
2018-12-23T05:59:05.598Z,45.33
2018-12-23T06:02:01.240Z,44.93
2018-12-23T06:04:49.897Z,38.73
2018-12-23T06:07:38.252Z,43.63
2018-12-23T06:10:30.883Z,43.93
2018-12-23T06:13:19.852Z,40.10
2018-12-23T06:16:08.691Z,37.27
2018-12-23T06:19:01.281Z,43.47
2018-12-23T06:21:49.303Z,43.97
2018-12-23T06:24:42.096Z,43.67
2018-12-23T06:27:30.591Z,42.90
2018-12-23T06:30:20.948Z,42.43
2018-12-23T06:33:09.612Z,39.37
2018-12-23T06:35:59.837Z,40.37
2018-12-23T06:38:53.158Z,40.27
2018-12-23T06:41:41.851Z,40.03
2018-12-23T06:44:35.500Z,42.43
2018-12-23T06:47:24.821Z,41.10
2018-12-23T06:50:12.536Z,39.40
2018-12-23T06:53:07.639Z,40.20
2018-12-23T06:55:56.963Z,40.20
2018-12-23T06:58:54.233Z,38.50
2018-12-23T07:01:42.545Z,39.57
2018-12-23T07:04:31.375Z,37.53
2018-12-23T07:07:20.139Z,36.97
2018-12-23T07:10:08.560Z,37.57
2018-12-23T07:12:56.609Z,36.07
2018-12-23T07:18:59.290Z,37.20
2018-12-23T07:21:48.294Z,35.60
2018-12-23T07:24:37.271Z,37.87
2018-12-23T07:27:25.084Z,37.07
2018-12-23T07:30:14.576Z,36.97
2018-12-23T07:33:03.298Z,36.20
2018-12-23T07:35:52.642Z,36.07
2018-12-23T07:38:40.408Z,35.73
2018-12-23T07:41:28.866Z,34.63
2018-12-23T07:44:17.565Z,36.20
2018-12-23T07:47:06.321Z,34.50
2018-12-23T07:49:55.362Z,35.87
2018-12-23T07:52:42.697Z,35.17
2018-12-23T07:55:31.022Z,35.60
2018-12-23T07:58:19.290Z,33.50
2018-12-23T08:01:07.364Z,34.57
2018-12-23T08:03:56.102Z,33.70
2018-12-23T08:06:48.429Z,33.97
2018-12-23T08:09:36.303Z,33.10
2018-12-23T08:12:24.379Z,32.33
2018-12-23T08:15:12.624Z,33.40
2018-12-23T08:18:00.865Z,33.73
2018-12-23T08:20:50.612Z,32.63
2018-12-23T08:23:38.682Z,32.33
2018-12-23T08:26:26.734Z,32.13
2018-12-23T08:29:17.765Z,31.93
2018-12-23T08:32:10.528Z,32.13
2018-12-23T08:35:03.221Z,31.37
2018-12-23T08:37:51.755Z,30.47
2018-12-23T08:40:39.795Z,31.10
2018-12-23T08:43:28.730Z,30.63
2018-12-23T08:46:17.112Z,30.93
2018-12-23T08:49:06.084Z,31.47
2018-12-23T08:51:54.734Z,30.80
2018-12-23T08:54:42.470Z,30.80
2018-12-23T08:57:29.884Z,30.80
2018-12-23T09:00:19.072Z,28.87
2018-12-23T09:03:07.405Z,30.67
2018-12-23T09:06:00.707Z,31.80
2018-12-23T09:08:51.293Z,29.80
2018-12-23T09:11:43.011Z,30.30
2018-12-23T09:14:31.679Z,29.43
2018-12-23T09:17:21.283Z,28.23
2018-12-23T09:20:14.502Z,28.67
2018-12-23T09:23:04.449Z,28.67
2018-12-23T09:25:52.662Z,27.73
2018-12-23T09:28:40.893Z,28.80
2018-12-23T09:31:30.311Z,29.37
2018-12-23T09:34:18.357Z,29.03
2018-12-23T09:37:06.407Z,29.20
2018-12-23T09:39:54.493Z,30.07
2018-12-23T09:42:42.570Z,28.67
2018-12-23T09:45:30.052Z,28.07
2018-12-23T09:48:18.050Z,27.87
2018-12-23T09:51:05.744Z,28.40
2018-12-23T09:53:54.087Z,28.20
2018-12-23T09:56:42.893Z,28.10
2018-12-23T09:59:31.412Z,27.70
2018-12-23T10:02:19.447Z,26.57
2018-12-23T10:05:09.566Z,28.20
2018-12-23T10:07:57.535Z,27.87
2018-12-23T10:10:46.517Z,28.87
2018-12-23T10:13:34.822Z,28.00
2018-12-23T10:16:23.151Z,27.37
2018-12-23T10:19:13.761Z,28.13
2018-12-23T10:22:02.443Z,27.97
2018-12-23T10:24:51.477Z,27.50
2018-12-23T10:27:39.971Z,27.13
2018-12-23T10:30:29.629Z,26.67
2018-12-23T10:33:18.455Z,27.87
2018-12-23T10:36:07.548Z,26.60
2018-12-23T10:38:56.424Z,27.53
2018-12-23T10:41:45.005Z,25.87
2018-12-23T10:44:33.714Z,26.73
2018-12-23T10:47:21.752Z,28.03
2018-12-23T10:50:11.206Z,26.10
2018-12-23T10:53:00.718Z,27.20
2018-12-23T10:55:49.261Z,27.73
2018-12-23T10:58:38.318Z,26.23
2018-12-23T11:01:28.223Z,26.73
2018-12-23T11:05:45.770Z,27.50
2018-12-23T11:08:42.527Z,27.17
2018-12-23T11:11:38.805Z,25.80
2018-12-23T11:14:35.579Z,26.23
2018-12-23T11:17:32.081Z,25.50
2018-12-23T11:20:28.627Z,25.63
2018-12-23T11:23:25.170Z,26.30
2018-12-23T11:26:21.654Z,26.47
2018-12-23T11:29:19.006Z,24.47
2018-12-23T11:32:15.868Z,26.70
2018-12-23T11:35:12.083Z,25.97
2018-12-23T11:38:08.829Z,25.23
2018-12-23T11:41:07.847Z,28.03
2018-12-23T11:44:04.848Z,25.50
2018-12-23T11:47:19.896Z,26.47
2018-12-23T11:50:16.142Z,27.53
2018-12-23T11:53:12.680Z,24.77
2018-12-23T11:56:09.958Z,25.70
2018-12-23T11:59:06.880Z,24.63
2018-12-23T12:02:03.389Z,26.47
2018-12-23T12:05:03.468Z,25.80
2018-12-23T12:08:02.179Z,24.70
2018-12-23T12:10:59.325Z,24.63
2018-12-23T12:14:00.463Z,25.57
2018-12-23T12:16:57.319Z,25.80
2018-12-23T12:19:54.672Z,25.40
2018-12-23T12:22:51.583Z,24.43
2018-12-23T12:25:48.267Z,24.73
2018-12-23T12:28:48.090Z,24.63
2018-12-23T12:31:44.114Z,25.77
2018-12-23T12:34:45.204Z,24.60
2018-12-23T12:37:39.076Z,24.90
2018-12-23T12:40:37.376Z,25.97
2018-12-23T12:43:33.932Z,25.67
2018-12-23T12:46:31.945Z,26.20
2018-12-23T12:49:28.752Z,25.13
2018-12-23T12:52:24.872Z,25.07
2018-12-23T12:55:21.411Z,27.80
2018-12-23T12:58:18.646Z,29.27
2018-12-23T13:01:15.894Z,30.03
2018-12-23T13:04:16.986Z,30.77
2018-12-23T13:07:13.544Z,39.70
2018-12-23T13:10:10.163Z,44.20
2018-12-23T13:13:12.126Z,27.97
2018-12-23T13:16:08.951Z,26.23
2018-12-23T13:19:05.182Z,28.20
2018-12-23T13:22:05.143Z,28.53
2018-12-23T13:25:01.022Z,28.80
2018-12-23T13:28:00.098Z,28.73
2018-12-23T13:30:57.115Z,41.00
2018-12-23T13:33:53.654Z,27.93
2018-12-23T13:36:50.010Z,30.93
2018-12-23T13:39:46.709Z,35.73
2018-12-23T13:43:17.667Z,30.80
2018-12-23T13:46:32.516Z,27.80
2018-12-23T13:50:17.305Z,28.80
2018-12-23T13:53:40.832Z,29.10
2018-12-23T13:57:22.635Z,28.67
2018-12-23T14:00:59.952Z,31.23
2018-12-23T14:04:42.442Z,33.50
2018-12-23T14:08:06.203Z,43.73
2018-12-23T14:11:16.804Z,38.07
2018-12-23T14:14:12.678Z,34.67
2018-12-23T14:17:09.641Z,41.83
2018-12-23T14:20:05.576Z,37.13
2018-12-23T14:23:01.520Z,32.67
2018-12-23T14:26:11.844Z,36.53
2018-12-23T14:29:08.066Z,38.90
2018-12-23T14:32:04.364Z,34.57
2018-12-23T14:35:00.597Z,36.23
2018-12-23T14:37:57.298Z,37.57
2018-12-23T14:40:54.742Z,35.03
2018-12-23T14:43:52.533Z,31.43
2018-12-23T14:46:48.763Z,33.93
2018-12-23T14:49:47.245Z,36.47
2018-12-23T14:52:56.880Z,40.17
2018-12-23T14:55:55.437Z,35.03
2018-12-23T14:58:51.577Z,35.80
2018-12-23T15:01:47.728Z,37.50
2018-12-23T15:05:03.972Z,40.53
2018-12-23T15:08:00.031Z,37.63
2018-12-23T15:10:56.790Z,39.83
2018-12-23T15:13:55.288Z,39.50
2018-12-23T15:16:51.257Z,38.60
2018-12-23T15:19:47.584Z,38.10
2018-12-23T15:22:45.093Z,37.70
2018-12-23T15:25:41.952Z,38.17
2018-12-23T15:28:38.088Z,36.20
2018-12-23T15:31:33.847Z,38.07
2018-12-23T15:34:47.870Z,41.10
2018-12-23T15:37:44.120Z,37.43
2018-12-23T15:40:40.544Z,42.67
2018-12-23T15:43:36.932Z,42.50
2018-12-23T15:46:33.303Z,46.50
2018-12-23T15:49:29.798Z,47.33
2018-12-23T15:52:36.686Z,53.20
2018-12-23T15:55:33.591Z,49.63
2018-12-23T15:58:30.348Z,50.37
2018-12-23T16:01:27.489Z,58.70
2018-12-23T16:04:25.329Z,52.23
2018-12-23T16:07:21.940Z,51.93
2018-12-23T16:10:19.558Z,54.90
2018-12-23T16:13:16.231Z,58.13
2018-12-23T16:16:12.942Z,59.70
2018-12-23T16:19:21.767Z,49.77
2018-12-23T16:22:18.147Z,51.77
2018-12-23T16:25:14.404Z,55.37
2018-12-23T16:28:10.606Z,51.93
2018-12-23T16:31:08.282Z,54.37
2018-12-23T16:34:05.931Z,50.10
2018-12-23T16:37:02.471Z,56.93
2018-12-23T16:39:59.691Z,54.90
2018-12-23T16:42:55.989Z,55.90
2018-12-23T16:45:51.881Z,55.50
2018-12-23T16:49:01.722Z,55.03
2018-12-23T16:51:58.829Z,57.00
2018-12-23T16:54:55.699Z,58.47
2018-12-23T16:57:52.274Z,62.57
2018-12-23T17:00:48.388Z,62.27
2018-12-23T17:03:46.126Z,58.10
2018-12-23T17:06:48.146Z,67.90
2018-12-23T17:09:44.659Z,82.73
2018-12-23T17:12:41.079Z,74.00
2018-12-23T17:15:37.238Z,81.07
2018-12-23T17:18:33.739Z,80.10
2018-12-23T17:21:29.803Z,81.13
2018-12-23T17:24:26.054Z,69.23
2018-12-23T17:27:25.339Z,83.43
2018-12-23T17:30:21.240Z,81.87
2018-12-23T17:33:20.239Z,72.07
2018-12-23T17:36:16.872Z,84.63
2018-12-23T17:39:14.117Z,72.47
2018-12-23T17:42:10.013Z,80.40
2018-12-23T17:45:06.176Z,91.70
2018-12-23T17:48:04.672Z,87.30
2018-12-23T17:51:01.467Z,66.03
2018-12-23T17:53:57.542Z,80.53
2018-12-23T17:56:55.912Z,87.07
2018-12-23T17:59:52.290Z,76.20
2018-12-23T18:02:49.585Z,92.13
2018-12-23T18:05:45.796Z,86.10
2018-12-23T18:08:41.515Z,90.17
2018-12-23T18:11:43.276Z,94.23
2018-12-23T18:14:38.277Z,77.13
2018-12-23T18:17:37.877Z,83.77
2018-12-23T18:20:35.504Z,105.13
2018-12-23T18:23:32.459Z,107.23
2018-12-23T18:26:28.982Z,109.63
2018-12-23T18:29:32.027Z,115.43
2018-12-23T18:32:28.192Z,107.13
2018-12-23T18:35:24.547Z,111.53
2018-12-23T18:38:20.810Z,129.13
2018-12-23T18:41:18.129Z,138.07
2018-12-23T18:44:14.091Z,114.23
2018-12-23T18:47:10.085Z,121.00
2018-12-23T18:50:08.643Z,117.63
2018-12-23T18:53:04.702Z,110.80
2018-12-23T18:56:00.424Z,126.83
2018-12-23T18:58:57.500Z,130.80
2018-12-23T19:02:18.861Z,147.33
2018-12-23T19:05:32.746Z,134.83
2018-12-23T19:08:36.441Z,133.23
2018-12-23T19:12:05.211Z,121.07
2018-12-23T19:15:35.439Z,108.83
2018-12-23T19:19:19.335Z,105.90
2018-12-23T19:22:51.205Z,115.43
2018-12-23T19:26:50.107Z,110.70
2018-12-23T19:30:24.064Z,107.77
2018-12-23T19:33:58.550Z,99.57
2018-12-23T19:37:48.343Z,95.30
2018-12-23T19:41:42.230Z,91.90
2018-12-23T19:45:11.810Z,86.17
2018-12-23T19:48:42.289Z,86.07
2018-12-23T19:52:07.033Z,84.63
2018-12-23T19:55:36.113Z,84.43
2018-12-23T19:59:18.450Z,83.07
2018-12-23T20:02:53.923Z,82.83
2018-12-23T20:06:48.610Z,81.37
2018-12-23T20:10:19.983Z,80.80
2018-12-23T20:13:53.231Z,80.93
2018-12-23T20:17:29.768Z,85.47
2018-12-23T20:21:07.795Z,87.93
2018-12-23T20:24:55.805Z,95.80
2018-12-23T20:28:18.508Z,103.07
2018-12-23T20:31:27.406Z,99.20
2018-12-23T20:35:03.686Z,94.87
2018-12-23T20:38:56.567Z,88.70
2018-12-23T20:42:27.090Z,86.87
2018-12-23T20:45:58.961Z,84.40
2018-12-23T20:49:45.364Z,82.40
2018-12-23T20:53:04.072Z,88.50
2018-12-23T20:56:41.903Z,84.33
2018-12-23T21:00:38.161Z,95.37
2018-12-23T21:04:13.813Z,96.50
2018-12-23T21:07:50.884Z,109.07
2018-12-23T21:11:15.825Z,93.90
2018-12-23T21:15:02.276Z,103.10
2018-12-23T21:18:42.150Z,117.17
2018-12-23T21:22:06.979Z,90.13
2018-12-23T21:25:52.973Z,104.80
2018-12-23T21:29:26.283Z,96.97
2018-12-23T21:33:10.740Z,128.03
2018-12-23T21:36:33.476Z,137.53
2018-12-23T21:40:23.226Z,161.53
2018-12-23T21:43:53.523Z,158.73
2018-12-23T21:47:32.993Z,145.10
2018-12-23T21:50:54.357Z,146.47
2018-12-23T21:54:25.257Z,132.63
2018-12-23T21:57:52.034Z,140.20
2018-12-23T22:01:22.254Z,152.43
2018-12-23T22:05:08.038Z,139.10
2018-12-23T22:08:58.136Z,141.63
2018-12-23T22:12:42.022Z,153.23
2018-12-23T22:15:38.420Z,150.83
2018-12-23T22:18:34.602Z,145.53
2018-12-23T22:21:34.639Z,141.33
2018-12-23T22:24:30.580Z,144.57
2018-12-23T22:27:26.852Z,137.77
2018-12-23T22:30:22.829Z,136.50
2018-12-23T22:33:25.316Z,132.27
2018-12-23T22:36:25.870Z,136.37
2018-12-23T22:39:22.417Z,127.83
2018-12-23T22:42:18.247Z,126.20
2018-12-23T22:45:17.803Z,123.10
2018-12-23T22:48:13.899Z,121.50
2018-12-23T22:51:09.715Z,123.43
2018-12-23T22:54:07.346Z,118.80
2018-12-23T22:57:06.341Z,117.30
2018-12-23T23:00:02.187Z,115.23
2018-12-23T23:03:08.768Z,115.43
2018-12-23T23:05:58.602Z,114.20
2018-12-23T23:08:54.849Z,116.40
2018-12-23T23:11:50.741Z,116.13
2018-12-23T23:14:49.593Z,121.90
2018-12-23T23:17:45.737Z,116.67
2018-12-23T23:20:47.461Z,117.07
2018-12-23T23:23:43.254Z,117.40
2018-12-23T23:26:39.703Z,116.17
2018-12-23T23:29:36.111Z,114.37
2018-12-23T23:32:32.164Z,111.97
2018-12-23T23:35:28.026Z,114.67
2018-12-23T23:38:26.704Z,114.43
2018-12-23T23:41:21.484Z,114.13
2018-12-23T23:44:20.866Z,113.87
2018-12-23T23:47:35.176Z,114.37
2018-12-23T23:50:31.254Z,114.30
2018-12-23T23:53:27.216Z,117.60
2018-12-23T23:56:30.726Z,114.30
2018-12-23T23:59:26.885Z,115.93
